sensor_id;sensor_type;location;lat;lon;timestamp;pressure;altitude;pressure_sealevel;temperature;humidity
5574;BME280;2563;52.242;7.956;2023-06-14T00:00:09;100834.69;;;16.73;100.00
5574;BME280;2563;52.242;7.956;2023-06-14T00:02:38;100835.13;;;16.64;100.00
5574;BME280;2563;52.242;7.956;2023-06-14T00:05:04;100835.19;;;16.63;100.00
5574;BME280;2563;52.242;7.956;2023-06-14T00:07:38;100840.75;;;16.55;100.00
5574;BME280;2563;52.242;7.956;2023-06-14T00:10:07;100842.97;;;16.44;100.00
5574;BME280;2563;52.242;7.956;2023-06-14T00:12:33;100836.34;;;16.36;100.00
5574;BME280;2563;52.242;7.956;2023-06-14T00:14:59;100841.03;;;16.28;100.00
5574;BME280;2563;52.242;7.956;2023-06-14T00:17:27;100843.66;;;16.28;100.00
5574;BME280;2563;52.242;7.956;2023-06-14T00:19:56;100844.00;;;16.40;100.00
5574;BME280;2563;52.242;7.956;2023-06-14T00:22:22;100850.13;;;16.38;100.00
5574;BME280;2563;52.242;7.956;2023-06-14T00:24:49;100845.91;;;16.36;100.00
5574;BME280;2563;52.242;7.956;2023-06-14T00:27:15;100847.78;;;16.32;100.00
5574;BME280;2563;52.242;7.956;2023-06-14T00:29:40;100844.41;;;16.30;100.00
5574;BME280;2563;52.242;7.956;2023-06-14T00:32:06;100849.72;;;16.27;100.00
5574;BME280;2563;52.242;7.956;2023-06-14T00:34:32;100839.72;;;16.18;100.00
5574;BME280;2563;52.242;7.956;2023-06-14T00:36:57;100848.06;;;16.06;100.00
5574;BME280;2563;52.242;7.956;2023-06-14T00:39:23;100844.94;;;15.98;100.00
5574;BME280;2563;52.242;7.956;2023-06-14T00:41:48;100847.97;;;15.87;100.00
5574;BME280;2563;52.242;7.956;2023-06-14T00:44:16;100854.47;;;15.77;100.00
5574;BME280;2563;52.242;7.956;2023-06-14T00:46:42;100845.44;;;15.63;100.00
5574;BME280;2563;52.242;7.956;2023-06-14T00:49:08;100844.97;;;15.53;100.00
5574;BME280;2563;52.242;7.956;2023-06-14T00:51:34;100847.03;;;15.45;100.00
5574;BME280;2563;52.242;7.956;2023-06-14T00:53:59;100830.03;;;15.38;100.00
5574;BME280;2563;52.242;7.956;2023-06-14T00:56:26;100837.97;;;15.34;100.00
5574;BME280;2563;52.242;7.956;2023-06-14T00:58:52;100834.16;;;15.20;100.00
5574;BME280;2563;52.242;7.956;2023-06-14T01:01:18;100827.19;;;15.22;100.00
5574;BME280;2563;52.242;7.956;2023-06-14T01:03:43;100835.81;;;15.23;100.00
5574;BME280;2563;52.242;7.956;2023-06-14T01:08:51;100830.75;;;15.20;100.00
5574;BME280;2563;52.242;7.956;2023-06-14T01:11:24;100825.91;;;15.10;100.00
5574;BME280;2563;52.242;7.956;2023-06-14T01:13:53;100823.44;;;15.07;100.00
5574;BME280;2563;52.242;7.956;2023-06-14T01:16:19;100821.94;;;15.02;100.00
5574;BME280;2563;52.242;7.956;2023-06-14T01:18:45;100814.56;;;14.91;100.00
5574;BME280;2563;52.242;7.956;2023-06-14T01:21:23;100816.47;;;14.86;100.00
5574;BME280;2563;52.242;7.956;2023-06-14T01:23:51;100815.94;;;14.78;100.00
5574;BME280;2563;52.242;7.956;2023-06-14T01:26:23;100805.63;;;14.76;100.00
5574;BME280;2563;52.242;7.956;2023-06-14T01:28:50;100811.81;;;14.72;100.00
5574;BME280;2563;52.242;7.956;2023-06-14T01:31:20;100804.78;;;14.76;100.00
5574;BME280;2563;52.242;7.956;2023-06-14T01:33:48;100797.19;;;14.71;100.00
5574;BME280;2563;52.242;7.956;2023-06-14T01:36:14;100795.59;;;14.67;100.00
5574;BME280;2563;52.242;7.956;2023-06-14T01:38:41;100793.16;;;14.62;100.00
5574;BME280;2563;52.242;7.956;2023-06-14T01:41:07;100796.97;;;14.52;100.00
5574;BME280;2563;52.242;7.956;2023-06-14T01:43:34;100787.63;;;14.48;100.00
5574;BME280;2563;52.242;7.956;2023-06-14T01:46:00;100792.91;;;14.45;100.00
5574;BME280;2563;52.242;7.956;2023-06-14T01:48:25;100786.22;;;14.39;100.00
5574;BME280;2563;52.242;7.956;2023-06-14T01:50:52;100776.91;;;14.34;100.00
5574;BME280;2563;52.242;7.956;2023-06-14T01:53:17;100773.66;;;14.29;100.00
5574;BME280;2563;52.242;7.956;2023-06-14T01:55:43;100771.97;;;14.28;100.00
5574;BME280;2563;52.242;7.956;2023-06-14T01:58:09;100766.31;;;14.16;100.00
5574;BME280;2563;52.242;7.956;2023-06-14T02:00:35;100757.94;;;14.10;100.00
5574;BME280;2563;52.242;7.956;2023-06-14T02:03:01;100753.88;;;14.02;100.00
5574;BME280;2563;52.242;7.956;2023-06-14T02:05:29;100746.25;;;13.98;100.00
5574;BME280;2563;52.242;7.956;2023-06-14T02:07:55;100732.59;;;13.94;100.00
5574;BME280;2563;52.242;7.956;2023-06-14T02:10:20;100728.50;;;13.89;100.00
5574;BME280;2563;52.242;7.956;2023-06-14T02:12:46;100727.78;;;13.83;100.00
5574;BME280;2563;52.242;7.956;2023-06-14T02:15:11;100728.66;;;13.84;100.00
5574;BME280;2563;52.242;7.956;2023-06-14T02:17:45;100712.22;;;13.85;100.00
5574;BME280;2563;52.242;7.956;2023-06-14T02:20:11;100702.19;;;13.76;100.00
5574;BME280;2563;52.242;7.956;2023-06-14T02:22:36;100693.75;;;13.71;100.00
5574;BME280;2563;52.242;7.956;2023-06-14T02:25:02;100691.00;;;13.75;100.00
5574;BME280;2563;52.242;7.956;2023-06-14T02:27:28;100683.91;;;13.80;100.00
5574;BME280;2563;52.242;7.956;2023-06-14T02:29:53;100681.34;;;13.80;100.00
5574;BME280;2563;52.242;7.956;2023-06-14T02:32:18;100684.25;;;13.71;100.00
5574;BME280;2563;52.242;7.956;2023-06-14T02:34:44;100684.56;;;13.62;100.00
5574;BME280;2563;52.242;7.956;2023-06-14T02:37:09;100681.41;;;13.54;100.00
5574;BME280;2563;52.242;7.956;2023-06-14T02:39:36;100677.22;;;13.50;100.00
5574;BME280;2563;52.242;7.956;2023-06-14T02:42:01;100669.56;;;13.47;100.00
5574;BME280;2563;52.242;7.956;2023-06-14T02:44:27;100657.88;;;13.36;100.00
5574;BME280;2563;52.242;7.956;2023-06-14T02:46:53;100658.91;;;13.31;100.00
5574;BME280;2563;52.242;7.956;2023-06-14T02:49:19;100635.75;;;13.26;100.00
5574;BME280;2563;52.242;7.956;2023-06-14T02:51:45;100635.88;;;13.23;100.00
5574;BME280;2563;52.242;7.956;2023-06-14T02:54:10;100627.38;;;13.19;100.00
5574;BME280;2563;52.242;7.956;2023-06-14T02:56:36;100618.84;;;13.17;100.00
5574;BME280;2563;52.242;7.956;2023-06-14T02:59:01;100613.88;;;13.11;100.00
5574;BME280;2563;52.242;7.956;2023-06-14T03:01:27;100619.97;;;13.09;100.00
5574;BME280;2563;52.242;7.956;2023-06-14T03:03:59;100606.88;;;13.15;100.00
5574;BME280;2563;52.242;7.956;2023-06-14T03:06:24;100601.59;;;13.18;100.00
5574;BME280;2563;52.242;7.956;2023-06-14T03:08:50;100601.88;;;13.09;100.00
5574;BME280;2563;52.242;7.956;2023-06-14T03:11:15;100610.97;;;12.95;100.00
5574;BME280;2563;52.242;7.956;2023-06-14T03:13:42;100593.56;;;13.01;100.00
5574;BME280;2563;52.242;7.956;2023-06-14T03:16:09;100591.88;;;12.99;100.00
5574;BME280;2563;52.242;7.956;2023-06-14T03:18:34;100590.06;;;13.02;100.00
5574;BME280;2563;52.242;7.956;2023-06-14T03:21:01;100588.44;;;12.99;100.00
5574;BME280;2563;52.242;7.956;2023-06-14T03:23:27;100585.97;;;12.96;100.00
5574;BME280;2563;52.242;7.956;2023-06-14T03:25:53;100590.97;;;13.01;100.00
5574;BME280;2563;52.242;7.956;2023-06-14T03:28:18;100593.94;;;13.15;100.00
5574;BME280;2563;52.242;7.956;2023-06-14T03:30:43;100593.25;;;13.10;100.00
5574;BME280;2563;52.242;7.956;2023-06-14T03:33:09;100595.88;;;13.08;100.00
5574;BME280;2563;52.242;7.956;2023-06-14T03:35:35;100608.84;;;13.07;100.00
5574;BME280;2563;52.242;7.956;2023-06-14T03:38:00;100612.34;;;13.06;100.00
5574;BME280;2563;52.242;7.956;2023-06-14T03:40:25;100613.28;;;13.03;100.00
5574;BME280;2563;52.242;7.956;2023-06-14T03:42:53;100623.38;;;13.11;100.00
5574;BME280;2563;52.242;7.956;2023-06-14T03:45:19;100621.19;;;13.24;100.00
5574;BME280;2563;52.242;7.956;2023-06-14T03:47:44;100631.91;;;13.13;100.00
5574;BME280;2563;52.242;7.956;2023-06-14T03:50:10;100627.59;;;13.13;100.00
5574;BME280;2563;52.242;7.956;2023-06-14T03:52:36;100631.47;;;13.27;100.00
5574;BME280;2563;52.242;7.956;2023-06-14T03:55:02;100631.50;;;13.25;100.00
5574;BME280;2563;52.242;7.956;2023-06-14T03:57:29;100634.19;;;13.22;100.00
5574;BME280;2563;52.242;7.956;2023-06-14T03:59:54;100637.50;;;13.26;100.00
5574;BME280;2563;52.242;7.956;2023-06-14T04:02:20;100636.41;;;13.34;100.00
5574;BME280;2563;52.242;7.956;2023-06-14T04:04:45;100640.88;;;13.29;100.00
5574;BME280;2563;52.242;7.956;2023-06-14T04:07:11;100636.41;;;13.34;100.00
5574;BME280;2563;52.242;7.956;2023-06-14T04:09:38;100639.63;;;13.41;100.00
5574;BME280;2563;52.242;7.956;2023-06-14T04:12:04;100641.84;;;13.75;100.00
5574;BME280;2563;52.242;7.956;2023-06-14T04:14:30;100630.44;;;15.35;100.00
5574;BME280;2563;52.242;7.956;2023-06-14T04:16:58;100606.66;;;16.04;100.00
5574;BME280;2563;52.242;7.956;2023-06-14T04:19:23;100592.16;;;16.54;100.00
5574;BME280;2563;52.242;7.956;2023-06-14T04:21:49;100595.94;;;16.66;100.00
5574;BME280;2563;52.242;7.956;2023-06-14T04:24:15;100586.81;;;16.93;100.00
5574;BME280;2563;52.242;7.956;2023-06-14T04:26:42;100606.63;;;16.96;100.00
5574;BME280;2563;52.242;7.956;2023-06-14T04:29:10;100620.16;;;17.03;100.00
5574;BME280;2563;52.242;7.956;2023-06-14T04:31:40;100635.97;;;17.15;100.00
5574;BME280;2563;52.242;7.956;2023-06-14T04:34:05;100650.19;;;17.26;100.00
5574;BME280;2563;52.242;7.956;2023-06-14T04:36:34;100667.34;;;17.30;100.00
5574;BME280;2563;52.242;7.956;2023-06-14T04:39:03;100692.03;;;16.86;100.00
5574;BME280;2563;52.242;7.956;2023-06-14T04:41:32;100703.47;;;16.63;100.00
5574;BME280;2563;52.242;7.956;2023-06-14T04:43:58;100718.09;;;16.66;100.00
5574;BME280;2563;52.242;7.956;2023-06-14T04:46:27;100729.47;;;16.63;100.00
5574;BME280;2563;52.242;7.956;2023-06-14T04:48:53;100738.69;;;16.51;100.00
5574;BME280;2563;52.242;7.956;2023-06-14T04:51:19;100741.22;;;16.53;100.00
5574;BME280;2563;52.242;7.956;2023-06-14T04:53:46;100735.50;;;16.45;100.00
5574;BME280;2563;52.242;7.956;2023-06-14T04:56:11;100746.78;;;16.45;100.00
5574;BME280;2563;52.242;7.956;2023-06-14T04:58:37;100748.81;;;16.18;100.00
5574;BME280;2563;52.242;7.956;2023-06-14T05:01:03;100748.34;;;15.89;100.00
5574;BME280;2563;52.242;7.956;2023-06-14T05:03:29;100744.97;;;15.87;100.00
5574;BME280;2563;52.242;7.956;2023-06-14T05:05:55;100745.41;;;15.78;100.00
5574;BME280;2563;52.242;7.956;2023-06-14T05:08:21;100736.09;;;15.72;100.00
5574;BME280;2563;52.242;7.956;2023-06-14T05:10:50;100737.16;;;16.08;100.00
5574;BME280;2563;52.242;7.956;2023-06-14T05:13:15;100729.56;;;16.43;100.00
5574;BME280;2563;52.242;7.956;2023-06-14T05:15:41;100737.47;;;16.58;100.00
5574;BME280;2563;52.242;7.956;2023-06-14T05:18:06;100731.84;;;17.06;100.00
5574;BME280;2563;52.242;7.956;2023-06-14T05:20:34;100744.00;;;17.57;100.00
5574;BME280;2563;52.242;7.956;2023-06-14T05:23:02;100762.22;;;17.57;100.00
5574;BME280;2563;52.242;7.956;2023-06-14T05:25:28;100768.41;;;17.91;100.00
5574;BME280;2563;52.242;7.956;2023-06-14T05:27:53;100782.03;;;17.96;100.00
5574;BME280;2563;52.242;7.956;2023-06-14T05:30:18;100791.59;;;18.29;100.00
5574;BME280;2563;52.242;7.956;2023-06-14T05:32:44;100821.97;;;18.30;100.00
5574;BME280;2563;52.242;7.956;2023-06-14T05:35:10;100836.13;;;18.58;100.00
5574;BME280;2563;52.242;7.956;2023-06-14T05:37:35;100846.59;;;18.74;100.00
5574;BME280;2563;52.242;7.956;2023-06-14T05:40:01;100873.63;;;18.55;100.00
5574;BME280;2563;52.242;7.956;2023-06-14T05:42:30;100890.72;;;18.78;100.00
5574;BME280;2563;52.242;7.956;2023-06-14T05:44:55;100895.81;;;19.13;100.00
5574;BME280;2563;52.242;7.956;2023-06-14T05:47:21;100910.13;;;19.06;100.00
5574;BME280;2563;52.242;7.956;2023-06-14T05:49:46;100927.47;;;19.23;100.00
5574;BME280;2563;52.242;7.956;2023-06-14T05:52:11;100938.41;;;19.13;100.00
5574;BME280;2563;52.242;7.956;2023-06-14T05:54:38;100943.47;;;19.17;100.00
5574;BME280;2563;52.242;7.956;2023-06-14T05:57:03;100955.66;;;19.16;100.00
5574;BME280;2563;52.242;7.956;2023-06-14T05:59:31;100977.63;;;19.12;100.00
5574;BME280;2563;52.242;7.956;2023-06-14T06:01:56;100979.34;;;19.29;100.00
5574;BME280;2563;52.242;7.956;2023-06-14T06:04:23;100990.59;;;19.29;100.00
5574;BME280;2563;52.242;7.956;2023-06-14T06:06:48;100991.50;;;19.62;100.00
5574;BME280;2563;52.242;7.956;2023-06-14T06:09:14;100993.91;;;19.65;100.00
5574;BME280;2563;52.242;7.956;2023-06-14T06:11:40;101001.91;;;19.46;100.00
5574;BME280;2563;52.242;7.956;2023-06-14T06:14:06;101002.06;;;19.76;100.00
5574;BME280;2563;52.242;7.956;2023-06-14T06:16:31;100998.25;;;19.66;100.00
5574;BME280;2563;52.242;7.956;2023-06-14T06:18:56;100990.72;;;20.07;100.00
5574;BME280;2563;52.242;7.956;2023-06-14T06:21:22;101003.03;;;20.05;100.00
5574;BME280;2563;52.242;7.956;2023-06-14T06:23:47;101007.38;;;20.21;100.00
5574;BME280;2563;52.242;7.956;2023-06-14T06:26:12;101007.25;;;20.38;100.00
5574;BME280;2563;52.242;7.956;2023-06-14T06:28:38;101006.34;;;20.53;100.00
5574;BME280;2563;52.242;7.956;2023-06-14T06:31:03;100991.41;;;20.86;100.00
5574;BME280;2563;52.242;7.956;2023-06-14T06:33:28;101005.50;;;20.69;100.00
5574;BME280;2563;52.242;7.956;2023-06-14T06:35:54;100991.69;;;20.81;100.00
5574;BME280;2563;52.242;7.956;2023-06-14T06:38:20;101009.81;;;20.54;100.00
5574;BME280;2563;52.242;7.956;2023-06-14T06:40:45;101006.38;;;20.37;100.00
5574;BME280;2563;52.242;7.956;2023-06-14T06:43:11;101007.25;;;20.82;100.00
5574;BME280;2563;52.242;7.956;2023-06-14T06:45:41;101009.25;;;21.22;100.00
5574;BME280;2563;52.242;7.956;2023-06-14T06:48:07;101008.59;;;21.18;100.00
5574;BME280;2563;52.242;7.956;2023-06-14T06:50:32;101009.31;;;20.77;100.00
5574;BME280;2563;52.242;7.956;2023-06-14T06:52:58;101010.00;;;21.10;100.00
5574;BME280;2563;52.242;7.956;2023-06-14T06:55:23;101017.00;;;20.95;100.00
5574;BME280;2563;52.242;7.956;2023-06-14T06:57:48;101009.53;;;21.46;100.00
5574;BME280;2563;52.242;7.956;2023-06-14T07:00:15;101023.09;;;21.24;100.00
5574;BME280;2563;52.242;7.956;2023-06-14T07:02:41;101012.78;;;21.21;100.00
5574;BME280;2563;52.242;7.956;2023-06-14T07:05:07;101020.56;;;21.51;100.00
5574;BME280;2563;52.242;7.956;2023-06-14T07:07:32;101014.97;;;21.57;100.00
5574;BME280;2563;52.242;7.956;2023-06-14T07:09:58;101017.63;;;21.70;100.00
5574;BME280;2563;52.242;7.956;2023-06-14T07:12:23;101026.91;;;21.61;100.00
5574;BME280;2563;52.242;7.956;2023-06-14T07:14:49;101027.28;;;21.97;100.00
5574;BME280;2563;52.242;7.956;2023-06-14T07:17:14;101034.97;;;21.44;100.00
5574;BME280;2563;52.242;7.956;2023-06-14T07:19:40;101026.41;;;21.69;100.00
5574;BME280;2563;52.242;7.956;2023-06-14T07:22:05;101031.72;;;22.09;100.00
5574;BME280;2563;52.242;7.956;2023-06-14T07:24:30;101030.94;;;21.67;100.00
5574;BME280;2563;52.242;7.956;2023-06-14T07:26:56;101028.25;;;21.96;100.00
5574;BME280;2563;52.242;7.956;2023-06-14T07:29:21;101027.19;;;22.25;100.00
5574;BME280;2563;52.242;7.956;2023-06-14T07:31:47;101031.16;;;21.91;100.00
5574;BME280;2563;52.242;7.956;2023-06-14T07:34:13;101030.31;;;21.76;100.00
5574;BME280;2563;52.242;7.956;2023-06-14T07:36:38;101040.47;;;20.96;100.00
5574;BME280;2563;52.242;7.956;2023-06-14T07:39:04;101050.44;;;20.90;100.00
5574;BME280;2563;52.242;7.956;2023-06-14T07:41:31;101041.78;;;21.61;100.00
5574;BME280;2563;52.242;7.956;2023-06-14T07:43:56;101048.41;;;21.23;100.00
5574;BME280;2563;52.242;7.956;2023-06-14T07:46:21;101035.34;;;21.94;100.00
5574;BME280;2563;52.242;7.956;2023-06-14T07:48:47;101025.78;;;22.60;100.00
5574;BME280;2563;52.242;7.956;2023-06-14T07:51:13;101032.81;;;22.19;100.00
5574;BME280;2563;52.242;7.956;2023-06-14T07:53:38;101038.25;;;22.16;100.00
5574;BME280;2563;52.242;7.956;2023-06-14T07:56:04;101036.53;;;22.02;100.00
5574;BME280;2563;52.242;7.956;2023-06-14T07:58:29;101033.50;;;22.36;100.00
5574;BME280;2563;52.242;7.956;2023-06-14T08:00:55;101038.00;;;22.73;100.00
5574;BME280;2563;52.242;7.956;2023-06-14T08:03:20;101039.19;;;22.29;100.00
5574;BME280;2563;52.242;7.956;2023-06-14T08:05:47;101041.94;;;21.86;100.00
5574;BME280;2563;52.242;7.956;2023-06-14T08:08:13;101035.22;;;22.37;100.00
5574;BME280;2563;52.242;7.956;2023-06-14T08:10:38;101034.41;;;22.49;100.00
5574;BME280;2563;52.242;7.956;2023-06-14T08:13:03;101033.09;;;22.15;100.00
5574;BME280;2563;52.242;7.956;2023-06-14T08:15:29;101019.94;;;22.56;100.00
5574;BME280;2563;52.242;7.956;2023-06-14T08:17:54;101033.06;;;22.94;100.00
5574;BME280;2563;52.242;7.956;2023-06-14T08:20:20;101028.97;;;22.90;100.00
5574;BME280;2563;52.242;7.956;2023-06-14T08:22:45;101024.78;;;22.88;100.00
5574;BME280;2563;52.242;7.956;2023-06-14T08:25:12;101037.16;;;22.73;99.19
5574;BME280;2563;52.242;7.956;2023-06-14T08:27:37;101025.72;;;23.12;98.79
5574;BME280;2563;52.242;7.956;2023-06-14T08:30:03;101033.06;;;22.94;98.34
5574;BME280;2563;52.242;7.956;2023-06-14T08:32:29;101022.94;;;23.52;100.00
5574;BME280;2563;52.242;7.956;2023-06-14T08:34:54;101030.25;;;23.23;98.04
5574;BME280;2563;52.242;7.956;2023-06-14T08:37:20;101022.94;;;23.89;98.61
5574;BME280;2563;52.242;7.956;2023-06-14T08:39:46;101018.19;;;24.18;97.38
5574;BME280;2563;52.242;7.956;2023-06-14T08:42:12;101015.41;;;23.72;96.18
5574;BME280;2563;52.242;7.956;2023-06-14T08:44:39;101016.06;;;23.63;95.00
5574;BME280;2563;52.242;7.956;2023-06-14T08:47:05;101011.84;;;23.73;95.40
5574;BME280;2563;52.242;7.956;2023-06-14T08:49:32;101017.28;;;24.31;94.96
5574;BME280;2563;52.242;7.956;2023-06-14T08:52:00;101008.06;;;24.36;94.22
5574;BME280;2563;52.242;7.956;2023-06-14T08:54:27;101004.75;;;24.46;92.96
5574;BME280;2563;52.242;7.956;2023-06-14T08:56:55;101009.03;;;24.35;91.45
5574;BME280;2563;52.242;7.956;2023-06-14T08:59:31;101010.81;;;25.04;92.01
5574;BME280;2563;52.242;7.956;2023-06-14T09:02:04;101002.72;;;25.41;91.33
5574;BME280;2563;52.242;7.956;2023-06-14T09:04:30;101003.56;;;25.19;89.75
5574;BME280;2563;52.242;7.956;2023-06-14T09:06:57;101007.44;;;24.57;88.51
5574;BME280;2563;52.242;7.956;2023-06-14T09:09:24;101005.34;;;25.18;87.88
5574;BME280;2563;52.242;7.956;2023-06-14T09:11:51;101012.75;;;25.02;88.21
5574;BME280;2563;52.242;7.956;2023-06-14T09:14:18;101017.06;;;24.92;89.22
5574;BME280;2563;52.242;7.956;2023-06-14T09:16:43;101019.34;;;24.96;88.07
5574;BME280;2563;52.242;7.956;2023-06-14T09:19:14;101007.63;;;25.12;86.87
5574;BME280;2563;52.242;7.956;2023-06-14T09:21:47;101009.88;;;25.16;87.58
5574;BME280;2563;52.242;7.956;2023-06-14T09:24:13;101009.28;;;24.90;88.18
5574;BME280;2563;52.242;7.956;2023-06-14T09:26:39;101024.97;;;24.45;89.10
5574;BME280;2563;52.242;7.956;2023-06-14T09:29:05;101024.25;;;25.12;89.16
5574;BME280;2563;52.242;7.956;2023-06-14T09:31:31;101027.09;;;24.75;88.31
5574;BME280;2563;52.242;7.956;2023-06-14T09:33:58;101027.91;;;24.65;85.14
5574;BME280;2563;52.242;7.956;2023-06-14T09:36:25;101023.53;;;24.99;84.55
5574;BME280;2563;52.242;7.956;2023-06-14T09:41:41;101025.19;;;24.77;83.66
5574;BME280;2563;52.242;7.956;2023-06-14T09:44:09;101032.16;;;25.01;85.20
5574;BME280;2563;52.242;7.956;2023-06-14T09:46:36;101021.63;;;25.01;84.37
5574;BME280;2563;52.242;7.956;2023-06-14T09:49:03;101016.59;;;25.43;85.35
5574;BME280;2563;52.242;7.956;2023-06-14T09:51:29;101022.81;;;25.53;84.61
5574;BME280;2563;52.242;7.956;2023-06-14T09:54:02;101021.81;;;25.65;85.37
5574;BME280;2563;52.242;7.956;2023-06-14T09:56:35;101018.63;;;26.05;85.45
5574;BME280;2563;52.242;7.956;2023-06-14T09:59:04;101032.03;;;24.91;84.10
5574;BME280;2563;52.242;7.956;2023-06-14T10:01:31;101025.81;;;25.49;84.14
5574;BME280;2563;52.242;7.956;2023-06-14T10:04:04;101035.38;;;25.61;84.87
5574;BME280;2563;52.242;7.956;2023-06-14T10:06:31;101031.47;;;25.21;84.81
5574;BME280;2563;52.242;7.956;2023-06-14T10:08:59;101022.09;;;25.40;82.78
5574;BME280;2563;52.242;7.956;2023-06-14T10:11:28;101022.53;;;25.67;83.25
5574;BME280;2563;52.242;7.956;2023-06-14T10:13:58;101032.03;;;25.14;81.89
5574;BME280;2563;52.242;7.956;2023-06-14T10:19:13;101013.88;;;25.88;81.95
5574;BME280;2563;52.242;7.956;2023-06-14T10:21:57;101030.97;;;25.39;81.68
5574;BME280;2563;52.242;7.956;2023-06-14T10:24:43;101011.03;;;25.68;82.31
5574;BME280;2563;52.242;7.956;2023-06-14T10:27:09;101016.28;;;25.68;81.99
5574;BME280;2563;52.242;7.956;2023-06-14T10:32:18;101006.66;;;26.01;82.08
5574;BME280;2563;52.242;7.956;2023-06-14T10:34:44;100997.38;;;26.07;81.75
5574;BME280;2563;52.242;7.956;2023-06-14T10:37:13;101006.03;;;25.54;81.59
5574;BME280;2563;52.242;7.956;2023-06-14T10:39:43;101009.16;;;26.03;82.05
5574;BME280;2563;52.242;7.956;2023-06-14T10:42:11;101007.47;;;26.02;80.25
5574;BME280;2563;52.242;7.956;2023-06-14T10:44:53;101020.44;;;25.39;81.03
5574;BME280;2563;52.242;7.956;2023-06-14T10:47:31;101006.97;;;26.08;80.75
5574;BME280;2563;52.242;7.956;2023-06-14T10:52:34;101011.34;;;25.20;77.89
5574;BME280;2563;52.242;7.956;2023-06-14T10:55:07;101020.19;;;25.42;80.22
5574;BME280;2563;52.242;7.956;2023-06-14T10:57:35;101015.38;;;25.47;79.65
5574;BME280;2563;52.242;7.956;2023-06-14T11:00:02;101001.25;;;26.24;80.63
5574;BME280;2563;52.242;7.956;2023-06-14T11:05:26;101006.44;;;26.46;75.42
5574;BME280;2563;52.242;7.956;2023-06-14T11:10:43;101003.63;;;26.06;75.54
5574;BME280;2563;52.242;7.956;2023-06-14T11:13:09;101000.75;;;26.30;76.51
5574;BME280;2563;52.242;7.956;2023-06-14T11:15:36;100997.25;;;26.50;76.04
5574;BME280;2563;52.242;7.956;2023-06-14T11:18:04;100990.91;;;26.53;77.24
5574;BME280;2563;52.242;7.956;2023-06-14T11:20:32;100998.63;;;25.48;77.81
5574;BME280;2563;52.242;7.956;2023-06-14T11:22:57;100994.00;;;26.37;80.23
5574;BME280;2563;52.242;7.956;2023-06-14T11:25:24;100987.31;;;26.75;78.29
5574;BME280;2563;52.242;7.956;2023-06-14T11:27:50;100989.88;;;26.65;78.44
5574;BME280;2563;52.242;7.956;2023-06-14T11:30:15;100982.00;;;26.12;76.29
5574;BME280;2563;52.242;7.956;2023-06-14T11:32:41;100985.84;;;26.92;75.00
5574;BME280;2563;52.242;7.956;2023-06-14T11:35:08;100976.41;;;26.05;73.45
5574;BME280;2563;52.242;7.956;2023-06-14T11:37:34;100978.78;;;26.50;73.98
5574;BME280;2563;52.242;7.956;2023-06-14T11:40:03;100973.50;;;26.08;74.55
5574;BME280;2563;52.242;7.956;2023-06-14T11:42:31;100961.38;;;26.90;73.67
5574;BME280;2563;52.242;7.956;2023-06-14T11:44:57;100955.84;;;27.03;73.34
5574;BME280;2563;52.242;7.956;2023-06-14T11:47:22;100957.63;;;27.43;74.03
5574;BME280;2563;52.242;7.956;2023-06-14T11:49:48;100963.16;;;26.59;73.33
5574;BME280;2563;52.242;7.956;2023-06-14T11:52:14;100975.63;;;26.78;72.63
5574;BME280;2563;52.242;7.956;2023-06-14T11:54:40;100966.63;;;26.38;72.97
5574;BME280;2563;52.242;7.956;2023-06-14T11:57:09;100963.59;;;26.94;73.78
5574;BME280;2563;52.242;7.956;2023-06-14T11:59:39;100953.56;;;26.88;72.54
5574;BME280;2563;52.242;7.956;2023-06-14T12:02:05;100956.00;;;27.51;71.15
5574;BME280;2563;52.242;7.956;2023-06-14T12:04:31;100961.03;;;26.83;70.41
5574;BME280;2563;52.242;7.956;2023-06-14T12:06:57;100947.91;;;27.03;69.79
5574;BME280;2563;52.242;7.956;2023-06-14T12:09:23;100947.19;;;27.31;72.26
5574;BME280;2563;52.242;7.956;2023-06-14T12:11:51;100954.50;;;27.18;70.70
5574;BME280;2563;52.242;7.956;2023-06-14T12:14:16;100956.59;;;26.53;70.02
5574;BME280;2563;52.242;7.956;2023-06-14T12:16:42;100961.50;;;26.98;70.55
5574;BME280;2563;52.242;7.956;2023-06-14T12:19:09;100957.03;;;27.29;71.07
5574;BME280;2563;52.242;7.956;2023-06-14T12:21:37;100945.53;;;27.50;72.41
5574;BME280;2563;52.242;7.956;2023-06-14T12:24:04;100953.56;;;27.29;72.05
5574;BME280;2563;52.242;7.956;2023-06-14T12:26:32;100952.31;;;27.23;71.91
5574;BME280;2563;52.242;7.956;2023-06-14T12:28:57;100940.69;;;27.94;70.40
5574;BME280;2563;52.242;7.956;2023-06-14T12:31:23;100940.22;;;28.28;71.80
5574;BME280;2563;52.242;7.956;2023-06-14T12:33:49;100931.72;;;28.34;68.13
5574;BME280;2563;52.242;7.956;2023-06-14T12:36:15;100938.72;;;27.57;67.95
5574;BME280;2563;52.242;7.956;2023-06-14T12:38:40;100959.88;;;26.66;66.91
5574;BME280;2563;52.242;7.956;2023-06-14T12:41:06;100938.41;;;27.21;68.07
5574;BME280;2563;52.242;7.956;2023-06-14T12:43:32;100934.28;;;27.67;68.60
5574;BME280;2563;52.242;7.956;2023-06-14T12:45:58;100934.94;;;28.47;69.15
5574;BME280;2563;52.242;7.956;2023-06-14T12:48:23;100934.97;;;28.08;67.88
5574;BME280;2563;52.242;7.956;2023-06-14T12:50:49;100953.78;;;27.66;67.15
5574;BME280;2563;52.242;7.956;2023-06-14T12:53:14;100949.59;;;27.64;68.05
5574;BME280;2563;52.242;7.956;2023-06-14T12:55:39;100957.53;;;27.64;67.75
5574;BME280;2563;52.242;7.956;2023-06-14T12:58:05;100967.06;;;26.95;68.39
5574;BME280;2563;52.242;7.956;2023-06-14T13:00:30;100954.88;;;27.44;68.46
5574;BME280;2563;52.242;7.956;2023-06-14T13:02:56;100952.94;;;27.75;67.24
5574;BME280;2563;52.242;7.956;2023-06-14T13:05:22;100949.81;;;28.38;68.08
5574;BME280;2563;52.242;7.956;2023-06-14T13:07:48;100951.94;;;27.47;65.86
5574;BME280;2563;52.242;7.956;2023-06-14T13:10:13;100966.75;;;26.16;67.71
5574;BME280;2563;52.242;7.956;2023-06-14T13:12:38;100965.34;;;26.75;68.62
5574;BME280;2563;52.242;7.956;2023-06-14T13:15:05;100969.06;;;26.72;67.87
5574;BME280;2563;52.242;7.956;2023-06-14T13:17:31;100941.41;;;28.62;69.36
5574;BME280;2563;52.242;7.956;2023-06-14T13:19:58;100942.09;;;27.88;66.86